Kezdőlap
METAR-TAF:

METAR-TAF

Repülőterek :

Orsk, Oroszország

földrajzi szélesség: 51-04-18N, földrajzi hosszúság: 058-35-48E, magasság: 277 m

Jelenlegi meteorológiai megfigyelések

A jelentés 1 órával és 8 perccel ezelõtt készült, 04:00 UTC
Különbözõ irányokból fújó szél 2 kt
Hőmérséklet -4°C
Páratartalom 86%
Légköri nyomás 1024 hPa
Látótávolság 10 km, vagy több
felhőtlen 1500 m magasságban, és nincs gomolyfelhõ

METAR: UWOR 230400Z VRB01MPS CAVOK M04/M06 Q1024 R07/CLRD65 NOSIG RMK QFE743/0990

Idő: 10:08 (05:08 UTC)

Előrejelzés

A jelentés 3 órával és 8 perccel ezelõtt készült, 02:00 UTC
Az előrejelzés 23-én 03 óra UTC és 23-én 12 óra UTC között érvényes
Déli szél 12 kt széllökések: 21 kt
Látótávolság 10 km, vagy több
Szakadozott felhőzet 3000 lábon
23-én 03 óra UTC és 23-én 06 óra UTC között ideiglenes
Délkeleti szél 6 kt széllökések: 16 kt

TAF: UWOR 230200Z 2303/2312 19006G11MPS 9999 BKN030 TEMPO 2303/2306 14003G08MPS

Meteorológiai megfigyelések és előrejelzések több, mint 4000 repülőtéren (METAR és TAF jelentéseket).

A térképen piros és sárga pontok jelzik az elérhető meteorológiai állomásokat.

Mozgassa az egeret a pont fölött, hogy megjelenjen az állomás neve.

Azután kattintson az időjárási megfigyelések és előrejelzések megtekintéséhez.

A térkép megváltoztatása: kattintson a fekete keresztel jelölt zöld gombra ráközelítéshez, a vonallal jelölt zöld gombra távolításhoz, vagy a zöld nyilakra a szomszédos térképek eléréséhez.


METAR-TAF: